createdAt,value
2019-04-14T00:02:18.946Z,97.10
2019-04-14T00:04:50.766Z,97.20
2019-04-14T00:07:21.641Z,97.10
2019-04-14T00:09:52.231Z,97.30
2019-04-14T00:12:23.043Z,97.40
2019-04-14T00:14:53.869Z,97.20
2019-04-14T00:17:26.246Z,97.00
2019-04-14T00:19:58.818Z,97.10
2019-04-14T00:22:30.751Z,96.90
2019-04-14T00:25:02.384Z,97.30
2019-04-14T00:27:34.577Z,97.60
2019-04-14T00:30:07.657Z,97.80
2019-04-14T00:32:46.560Z,97.70
2019-04-14T00:35:25.566Z,97.80
2019-04-14T00:38:21.813Z,98.00
2019-04-14T00:41:37.305Z,97.90
2019-04-14T00:44:07.811Z,97.80
2019-04-14T00:46:51.756Z,98.20
2019-04-14T00:49:22.774Z,98.20
2019-04-14T00:51:53.498Z,98.10
2019-04-14T00:54:24.132Z,97.90
2019-04-14T00:56:56.225Z,97.80
2019-04-14T00:59:26.892Z,97.90
2019-04-14T01:01:59.080Z,97.60
2019-04-14T01:04:29.798Z,97.50
2019-04-14T01:07:02.267Z,97.70
2019-04-14T01:09:32.852Z,97.80
2019-04-14T01:12:03.905Z,97.80
2019-04-14T01:14:34.482Z,97.80
2019-04-14T01:17:05.107Z,97.50
2019-04-14T01:19:37.570Z,97.10
2019-04-14T01:22:08.176Z,97.10
2019-04-14T01:24:40.391Z,97.20
2019-04-14T01:27:12.378Z,97.30
2019-04-14T01:29:43.376Z,97.20
2019-04-14T01:32:14.079Z,97.40
2019-04-14T01:34:45.543Z,97.40
2019-04-14T01:37:16.478Z,97.10
2019-04-14T01:39:48.101Z,97.20
2019-04-14T01:42:20.221Z,97.40
2019-04-14T01:44:51.095Z,97.20
2019-04-14T01:47:22.733Z,97.20
2019-04-14T01:49:53.569Z,97.10
2019-04-14T01:52:50.061Z,97.20
2019-04-14T01:55:41.624Z,97.30
2019-04-14T01:58:20.766Z,97.20
2019-04-14T02:01:13.028Z,97.30
2019-04-14T02:03:45.467Z,97.50
2019-04-14T02:06:15.988Z,97.40
2019-04-14T02:08:47.617Z,97.30
2019-04-14T02:11:18.648Z,97.10
2019-04-14T02:13:50.464Z,97.10
2019-04-14T02:16:29.290Z,97.10
2019-04-14T02:18:55.180Z,96.70
2019-04-14T02:21:26.057Z,96.80
2019-04-14T02:23:56.565Z,96.80
2019-04-14T02:26:27.087Z,96.30
2019-04-14T02:28:57.714Z,96.30
2019-04-14T02:31:53.614Z,96.20
2019-04-14T02:34:34.114Z,96.10
2019-04-14T02:37:08.109Z,96.00
2019-04-14T02:44:45.115Z,95.90
2019-04-14T02:47:29.415Z,95.80
2019-04-14T02:49:49.480Z,95.80
2019-04-14T02:54:51.923Z,95.50
2019-04-14T02:59:49.920Z,95.20
2019-04-14T03:02:38.906Z,95.00
2019-04-14T03:04:58.699Z,95.00
2019-04-14T03:07:28.596Z,94.90
2019-04-14T03:09:46.984Z,95.00
2019-04-14T03:12:31.736Z,95.00
2019-04-14T03:18:30.066Z,94.70
2019-04-14T03:21:03.913Z,94.70
2019-04-14T03:23:48.599Z,94.50
2019-04-14T03:26:11.658Z,94.50
2019-04-14T03:28:51.275Z,94.40
2019-04-14T03:31:52.484Z,94.30
2019-04-14T03:37:19.663Z,93.90
2019-04-14T03:39:09.793Z,94.00
2019-04-14T03:41:42.913Z,94.10
2019-04-14T03:44:10.017Z,94.00
2019-04-14T03:46:51.096Z,93.90
2019-04-14T03:49:14.071Z,93.90
2019-04-14T03:51:54.785Z,93.90
2019-04-14T03:54:15.661Z,93.80
2019-04-14T03:56:51.410Z,93.50
2019-04-14T03:59:23.836Z,93.50
2019-04-14T04:01:54.884Z,93.40
2019-04-14T04:04:25.488Z,93.30
2019-04-14T04:06:57.483Z,93.20
2019-04-14T04:09:38.890Z,92.80
2019-04-14T04:12:09.657Z,92.40
2019-04-14T04:14:40.346Z,92.30
2019-04-14T04:17:38.763Z,92.50
2019-04-14T04:20:28.631Z,92.30
2019-04-14T04:23:16.263Z,92.40
2019-04-14T04:25:55.313Z,92.50
2019-04-14T04:28:58.250Z,92.30
2019-04-14T04:31:41.526Z,91.90
2019-04-14T04:34:31.602Z,91.90
2019-04-14T04:37:20.031Z,91.90
2019-04-14T04:39:51.786Z,91.70
2019-04-14T04:42:24.359Z,91.40
2019-04-14T04:44:55.359Z,91.00
2019-04-14T04:47:27.296Z,90.50
2019-04-14T04:49:58.405Z,90.20
2019-04-14T04:52:30.032Z,88.60
2019-04-14T04:55:00.671Z,88.20
2019-04-14T04:57:31.158Z,87.40
2019-04-14T05:00:02.832Z,86.00
2019-04-14T05:02:33.636Z,83.60
2019-04-14T05:05:05.495Z,83.90
2019-04-14T05:07:36.564Z,82.50
2019-04-14T05:10:24.228Z,81.70
2019-04-14T05:13:09.412Z,81.80
2019-04-14T05:15:42.801Z,81.00
2019-04-14T05:18:24.668Z,80.60
2019-04-14T05:20:55.805Z,81.30
2019-04-14T05:23:27.673Z,81.40
2019-04-14T05:25:58.678Z,82.50
2019-04-14T05:28:29.283Z,82.70
2019-04-14T05:31:01.110Z,82.50
2019-04-14T05:33:32.076Z,83.00
2019-04-14T05:36:02.646Z,82.00
2019-04-14T05:38:34.398Z,80.50
2019-04-14T05:41:05.467Z,79.70
2019-04-14T05:43:45.006Z,79.40
2019-04-14T05:46:09.847Z,79.30
2019-04-14T05:48:40.844Z,78.10
2019-04-14T05:51:13.057Z,77.90
2019-04-14T05:53:43.912Z,78.80
2019-04-14T05:56:14.508Z,78.80
2019-04-14T05:58:45.009Z,77.40
2019-04-14T06:01:16.427Z,74.40
2019-04-14T06:03:47.523Z,75.00
2019-04-14T06:06:18.212Z,76.20
2019-04-14T06:08:48.844Z,76.80
2019-04-14T06:11:19.333Z,77.60
2019-04-14T06:13:49.743Z,78.20
2019-04-14T06:16:20.218Z,77.20
2019-04-14T06:18:50.668Z,78.20
2019-04-14T06:21:21.174Z,77.20
2019-04-14T06:23:51.976Z,77.20
2019-04-14T06:26:22.618Z,77.20
2019-04-14T06:28:53.043Z,77.50
2019-04-14T06:31:34.442Z,78.20
2019-04-14T06:34:15.615Z,78.10
2019-04-14T06:37:11.245Z,78.20
2019-04-14T06:39:45.523Z,79.60
2019-04-14T06:42:16.043Z,81.00
2019-04-14T06:44:46.527Z,80.00
2019-04-14T06:47:17.307Z,80.20
2019-04-14T06:49:49.486Z,80.50
2019-04-14T06:52:20.361Z,79.60
2019-04-14T06:54:51.205Z,79.70
2019-04-14T06:57:22.142Z,80.40
2019-04-14T06:59:53.036Z,79.70
2019-04-14T07:02:23.757Z,78.00
2019-04-14T07:04:54.477Z,78.30
2019-04-14T07:07:25.265Z,77.10
2019-04-14T07:09:56.022Z,76.90
2019-04-14T07:12:26.674Z,78.00
2019-04-14T07:14:57.152Z,77.30
2019-04-14T07:17:27.882Z,76.10
2019-04-14T07:20:02.253Z,75.40
2019-04-14T07:22:30.885Z,74.10
2019-04-14T07:25:01.640Z,72.60
2019-04-14T07:27:32.382Z,72.60
2019-04-14T07:30:21.888Z,71.40
2019-04-14T07:33:09.972Z,70.00
2019-04-14T07:35:58.299Z,69.30
2019-04-14T07:38:48.266Z,69.80
2019-04-14T07:41:31.008Z,70.40
2019-04-14T07:44:23.600Z,71.50
2019-04-14T07:47:06.741Z,71.50
2019-04-14T07:49:56.080Z,72.40
2019-04-14T07:52:40.469Z,72.30
2019-04-14T07:55:18.324Z,72.50
2019-04-14T07:58:07.824Z,72.60
2019-04-14T08:00:45.134Z,71.40
2019-04-14T08:03:32.139Z,71.30
2019-04-14T08:06:03.109Z,71.70
2019-04-14T08:08:33.756Z,68.90
2019-04-14T08:11:04.824Z,70.10
2019-04-14T08:13:36.535Z,69.10
2019-04-14T08:16:07.345Z,66.20
2019-04-14T08:18:38.129Z,66.00
2019-04-14T08:21:09.032Z,67.60
2019-04-14T08:23:39.690Z,66.00
2019-04-14T08:26:10.587Z,66.20
2019-04-14T08:28:41.499Z,69.10
2019-04-14T08:31:12.625Z,68.50
2019-04-14T08:33:43.219Z,67.30
2019-04-14T08:36:14.028Z,66.60
2019-04-14T08:38:44.870Z,67.60
2019-04-14T08:41:15.433Z,68.40
2019-04-14T08:43:53.019Z,66.90
2019-04-14T08:46:50.348Z,66.00
2019-04-14T08:49:34.012Z,65.70
2019-04-14T08:52:11.508Z,66.60
2019-04-14T08:55:00.924Z,66.20
2019-04-14T08:57:47.422Z,64.60
2019-04-14T09:00:35.390Z,66.10
2019-04-14T09:03:29.494Z,66.60
2019-04-14T09:06:22.386Z,65.30
2019-04-14T09:09:14.603Z,65.30
2019-04-14T09:11:55.641Z,65.40
2019-04-14T09:14:26.348Z,64.00
2019-04-14T09:16:57.253Z,63.30
2019-04-14T09:19:28.088Z,64.60
2019-04-14T09:21:58.699Z,63.40
2019-04-14T09:24:29.249Z,60.70
2019-04-14T09:27:00.344Z,63.10
2019-04-14T09:29:31.191Z,61.60
2019-04-14T09:32:02.007Z,62.80
2019-04-14T09:34:32.713Z,63.10
2019-04-14T09:37:03.537Z,61.20
2019-04-14T09:39:34.259Z,61.70
2019-04-14T09:42:05.261Z,61.60
2019-04-14T09:44:35.818Z,62.20
2019-04-14T09:47:06.854Z,60.90
2019-04-14T09:49:37.869Z,61.10
2019-04-14T09:52:08.586Z,63.20
2019-04-14T09:54:39.644Z,62.50
2019-04-14T09:57:10.621Z,62.50
2019-04-14T09:59:41.252Z,62.30
2019-04-14T10:02:12.003Z,61.80
2019-04-14T10:04:42.986Z,61.80
2019-04-14T10:07:13.778Z,61.60
2019-04-14T10:09:44.414Z,61.90
2019-04-14T10:12:15.093Z,63.20
2019-04-14T10:14:45.730Z,63.60
2019-04-14T10:17:16.800Z,64.10
2019-04-14T10:19:47.750Z,62.50
2019-04-14T10:22:18.373Z,63.90
2019-04-14T10:24:48.941Z,63.50
2019-04-14T10:27:20.037Z,64.40
2019-04-14T10:29:50.756Z,63.40
2019-04-14T10:32:21.300Z,63.90
2019-04-14T10:34:52.357Z,61.80
2019-04-14T10:37:23.004Z,61.80
2019-04-14T10:39:54.165Z,62.60
2019-04-14T10:42:24.811Z,62.10
2019-04-14T10:44:55.495Z,62.30
2019-04-14T10:47:26.121Z,62.70
2019-04-14T10:49:56.961Z,57.60
2019-04-14T10:52:27.644Z,56.70
2019-04-14T10:54:58.143Z,58.40
2019-04-14T10:57:28.943Z,59.20
2019-04-14T11:00:00.045Z,60.40
2019-04-14T11:02:30.730Z,60.70
2019-04-14T11:05:01.480Z,60.50
2019-04-14T11:07:34.168Z,58.40
2019-04-14T11:10:05.345Z,56.10
2019-04-14T11:12:36.282Z,57.40
2019-04-14T11:15:08.034Z,57.40
2019-04-14T11:17:38.733Z,57.40
2019-04-14T11:20:09.986Z,57.40
2019-04-14T11:22:40.900Z,58.10
2019-04-14T11:25:11.785Z,57.80
2019-04-14T11:27:44.742Z,57.70
2019-04-14T11:30:19.288Z,58.10
2019-04-14T11:32:59.200Z,57.50
2019-04-14T11:35:51.683Z,57.10
2019-04-14T11:38:28.839Z,57.50
2019-04-14T11:41:01.472Z,55.40
2019-04-14T11:43:32.149Z,54.20
2019-04-14T11:46:03.993Z,54.20
2019-04-14T11:48:34.919Z,53.30
2019-04-14T11:51:06.189Z,55.10
2019-04-14T11:53:38.351Z,53.20
2019-04-14T11:56:09.382Z,54.40
2019-04-14T11:58:39.832Z,52.30
2019-04-14T12:01:35.606Z,52.10
2019-04-14T12:04:25.651Z,52.80
2019-04-14T12:07:18.910Z,50.40
2019-04-14T12:09:53.768Z,51.50
2019-04-14T12:12:24.604Z,51.10
2019-04-14T12:14:55.171Z,49.60
2019-04-14T12:17:26.010Z,49.90
2019-04-14T12:19:57.295Z,50.40
2019-04-14T12:22:27.992Z,50.10
2019-04-14T12:24:58.855Z,50.00
2019-04-14T12:27:29.708Z,50.70
2019-04-14T12:30:01.050Z,49.50
2019-04-14T12:32:33.746Z,50.00
2019-04-14T12:35:04.550Z,50.00
2019-04-14T12:37:35.280Z,48.00
2019-04-14T12:40:07.362Z,47.20
2019-04-14T12:42:56.217Z,47.20
2019-04-14T12:45:44.982Z,46.70
2019-04-14T12:48:34.667Z,46.90
2019-04-14T12:51:09.421Z,47.60
2019-04-14T12:53:40.195Z,47.60
2019-04-14T12:56:10.902Z,47.10
2019-04-14T12:58:49.647Z,46.20
2019-04-14T13:01:20.991Z,47.00
2019-04-14T13:03:51.663Z,46.00
2019-04-14T13:06:22.489Z,47.00
2019-04-14T13:08:53.364Z,46.30
2019-04-14T13:11:24.168Z,45.80
2019-04-14T13:13:55.142Z,45.80
2019-04-14T13:16:26.267Z,46.10
2019-04-14T13:18:57.086Z,45.00
2019-04-14T13:21:27.825Z,45.50
2019-04-14T13:23:58.430Z,46.40
2019-04-14T13:26:29.090Z,47.50
2019-04-14T13:28:59.865Z,47.00
2019-04-14T13:31:30.647Z,47.10
2019-04-14T13:34:01.302Z,45.10
2019-04-14T13:36:32.135Z,46.40
2019-04-14T13:39:04.468Z,46.70
2019-04-14T13:41:37.202Z,44.80
2019-04-14T13:44:09.325Z,45.50
2019-04-14T13:46:39.895Z,45.00
2019-04-14T13:49:10.481Z,44.30
2019-04-14T13:51:41.881Z,44.20
2019-04-14T13:54:13.011Z,44.40
2019-04-14T13:56:43.601Z,44.80
2019-04-14T13:59:14.409Z,43.30
2019-04-14T14:01:45.401Z,43.90
2019-04-14T14:04:16.283Z,43.80
2019-04-14T14:06:47.139Z,44.10
2019-04-14T14:09:17.760Z,43.90
2019-04-14T14:11:54.742Z,43.20
2019-04-14T14:14:42.989Z,44.10
2019-04-14T14:17:32.476Z,44.00
2019-04-14T14:20:14.106Z,44.60
2019-04-14T14:23:16.192Z,44.60
2019-04-14T14:25:53.356Z,44.60
2019-04-14T14:28:25.013Z,44.00
2019-04-14T14:30:55.638Z,44.30
2019-04-14T14:33:26.331Z,44.40
2019-04-14T14:35:56.890Z,43.10
2019-04-14T14:38:27.701Z,42.80
2019-04-14T14:41:00.010Z,41.70
2019-04-14T14:43:31.047Z,42.30
2019-04-14T14:46:19.980Z,41.90
2019-04-14T14:48:59.817Z,41.90
2019-04-14T14:51:49.400Z,42.30
2019-04-14T14:54:20.500Z,42.40
2019-04-14T14:56:51.360Z,42.00
2019-04-14T14:59:22.325Z,41.40
2019-04-14T15:01:53.252Z,41.50
2019-04-14T15:04:23.822Z,41.00
2019-04-14T15:06:54.683Z,40.50
2019-04-14T15:09:25.577Z,40.40
2019-04-14T15:11:56.130Z,40.40
2019-04-14T15:14:26.876Z,41.00
2019-04-14T15:16:57.543Z,41.00
2019-04-14T15:19:28.405Z,41.40
2019-04-14T15:21:59.523Z,41.60
2019-04-14T15:24:30.600Z,40.80
2019-04-14T15:27:01.719Z,41.50
2019-04-14T15:29:32.322Z,39.80
2019-04-14T15:32:03.230Z,39.00
2019-04-14T15:34:33.926Z,39.20
2019-04-14T15:37:04.837Z,39.50
2019-04-14T15:39:37.644Z,40.30
2019-04-14T15:42:07.844Z,40.30
2019-04-14T15:44:38.710Z,41.00
2019-04-14T15:47:09.923Z,40.30
2019-04-14T15:49:40.973Z,40.50
2019-04-14T15:52:11.885Z,40.20
2019-04-14T15:54:43.210Z,40.30
2019-04-14T15:57:24.374Z,39.80
2019-04-14T16:00:12.828Z,39.00
2019-04-14T16:03:02.544Z,39.20
2019-04-14T16:05:52.261Z,39.60
2019-04-14T16:08:30.496Z,39.00
2019-04-14T16:11:21.548Z,39.20
2019-04-14T16:14:08.414Z,39.40
2019-04-14T16:17:08.648Z,39.40
2019-04-14T16:19:48.574Z,40.10
2019-04-14T16:22:19.298Z,40.30
2019-04-14T16:24:50.420Z,40.30
2019-04-14T16:27:38.256Z,40.50
2019-04-14T16:30:34.689Z,40.30
2019-04-14T16:33:30.376Z,40.70
2019-04-14T16:36:01.021Z,41.60
2019-04-14T16:38:31.923Z,41.10
2019-04-14T16:41:03.363Z,40.80
2019-04-14T16:43:34.275Z,40.80
2019-04-14T16:46:05.232Z,41.10
2019-04-14T16:48:36.152Z,41.10
2019-04-14T16:51:08.853Z,40.40
2019-04-14T16:53:42.071Z,40.60
2019-04-14T16:56:21.729Z,40.80
2019-04-14T16:58:57.693Z,41.20
2019-04-14T17:01:36.632Z,41.30
2019-04-14T17:04:07.461Z,40.90
2019-04-14T17:06:38.568Z,41.10
2019-04-14T17:09:10.480Z,41.80
2019-04-14T17:11:42.542Z,41.70
2019-04-14T17:14:20.255Z,41.20
2019-04-14T17:17:08.063Z,41.40
2019-04-14T17:19:57.881Z,41.70
2019-04-14T17:22:59.938Z,42.30
2019-04-14T17:25:37.716Z,42.10
2019-04-14T17:28:36.417Z,42.70
2019-04-14T17:31:18.648Z,42.90
2019-04-14T17:34:27.472Z,43.10
2019-04-14T17:37:25.798Z,43.10
2019-04-14T17:40:01.489Z,43.30
2019-04-14T17:42:41.033Z,43.60
2019-04-14T17:45:36.653Z,43.90
2019-04-14T17:48:35.338Z,44.10
2019-04-14T17:51:23.592Z,44.50
2019-04-14T17:54:00.831Z,44.80
2019-04-14T17:56:45.971Z,45.20
2019-04-14T17:59:26.036Z,45.60
2019-04-14T18:02:14.058Z,45.60
2019-04-14T18:05:01.992Z,45.80
2019-04-14T18:07:51.939Z,46.10
2019-04-14T18:10:44.623Z,46.20
2019-04-14T18:13:27.465Z,46.40
2019-04-14T18:16:20.298Z,47.00
2019-04-14T18:19:10.103Z,46.70
2019-04-14T18:21:40.997Z,46.80
2019-04-14T18:24:11.968Z,47.00
2019-04-14T18:26:42.923Z,47.00
2019-04-14T18:29:31.719Z,47.20
2019-04-14T18:32:10.441Z,47.10
2019-04-14T18:34:56.597Z,47.20
2019-04-14T18:37:52.611Z,47.20
2019-04-14T18:40:45.565Z,47.30
2019-04-14T18:43:33.286Z,47.30
2019-04-14T18:46:24.263Z,47.90
2019-04-14T18:49:01.283Z,47.90
2019-04-14T18:51:55.048Z,48.10
2019-04-14T18:54:54.394Z,48.30
2019-04-14T18:57:34.004Z,48.60
2019-04-14T19:00:20.877Z,48.30
2019-04-14T19:02:51.936Z,48.70
2019-04-14T19:05:23.284Z,48.80
2019-04-14T19:07:54.403Z,48.60
2019-04-14T19:10:25.736Z,48.80
2019-04-14T19:13:15.503Z,48.70
2019-04-14T19:15:55.793Z,49.00
2019-04-14T19:18:29.989Z,49.10
2019-04-14T19:21:07.487Z,48.60
2019-04-14T19:23:38.565Z,48.60
2019-04-14T19:26:10.077Z,48.90
2019-04-14T19:28:41.128Z,48.80
2019-04-14T19:31:12.209Z,48.80
2019-04-14T19:33:43.150Z,49.00
2019-04-14T19:36:14.551Z,49.10
2019-04-14T19:38:45.357Z,49.10
2019-04-14T19:41:16.235Z,49.20
2019-04-14T19:43:46.988Z,49.10
2019-04-14T19:46:17.922Z,49.00
2019-04-14T19:48:49.048Z,49.20
2019-04-14T19:51:20.152Z,49.60
2019-04-14T19:53:51.404Z,49.50
2019-04-14T19:56:22.576Z,49.30
2019-04-14T19:58:53.421Z,49.60
2019-04-14T20:01:24.212Z,49.70
2019-04-14T20:03:55.252Z,50.80
2019-04-14T20:06:26.138Z,49.80
2019-04-14T20:08:56.854Z,49.90
2019-04-14T20:11:28.112Z,49.90
2019-04-14T20:13:58.851Z,50.60
2019-04-14T20:16:48.972Z,52.40
2019-04-14T20:19:39.322Z,51.60
2019-04-14T20:22:32.060Z,51.20
2019-04-14T20:25:33.874Z,51.30
2019-04-14T20:28:19.411Z,50.60
2019-04-14T20:30:59.508Z,50.80
2019-04-14T20:33:30.352Z,51.10
2019-04-14T20:36:01.240Z,51.20
2019-04-14T20:38:32.101Z,51.50
2019-04-14T20:41:03.010Z,51.60
2019-04-14T20:43:33.719Z,51.60
2019-04-14T20:46:04.685Z,51.90
2019-04-14T20:48:36.756Z,51.50
2019-04-14T20:51:07.363Z,51.90
2019-04-14T20:53:38.027Z,52.10
2019-04-14T20:56:08.530Z,52.00
2019-04-14T20:58:39.478Z,52.00
2019-04-14T21:01:12.196Z,52.00
2019-04-14T21:04:04.970Z,52.00
2019-04-14T21:06:57.540Z,52.30
2019-04-14T21:09:32.659Z,52.50
2019-04-14T21:12:20.785Z,52.60
2019-04-14T21:15:05.161Z,52.80
2019-04-14T21:17:48.214Z,53.60
2019-04-14T21:20:43.733Z,53.10
2019-04-14T21:23:26.568Z,53.60
2019-04-14T21:26:19.258Z,53.10
2019-04-14T21:29:08.082Z,53.40
2019-04-14T21:31:56.034Z,53.50
2019-04-14T21:34:36.266Z,53.50
2019-04-14T21:37:17.953Z,53.70
2019-04-14T21:39:55.765Z,53.70
2019-04-14T21:42:26.648Z,54.10
2019-04-14T21:44:57.600Z,54.40
2019-04-14T21:47:29.049Z,54.70
2019-04-14T21:49:59.716Z,54.70
2019-04-14T21:52:34.540Z,55.00
2019-04-14T21:55:06.296Z,55.30
2019-04-14T21:58:07.896Z,55.50
2019-04-14T22:01:49.171Z,55.80
2019-04-14T22:04:39.432Z,56.30
2019-04-14T22:07:35.526Z,56.60
2019-04-14T22:10:33.219Z,56.50
2019-04-14T22:13:05.991Z,57.20
2019-04-14T22:15:36.793Z,57.50
2019-04-14T22:18:09.021Z,57.60
2019-04-14T22:20:39.734Z,57.80
2019-04-14T22:23:12.317Z,57.70
2019-04-14T22:25:43.447Z,58.00
2019-04-14T22:28:13.979Z,58.30
2019-04-14T22:30:44.875Z,58.50
2019-04-14T22:33:15.649Z,58.60
2019-04-14T22:35:46.243Z,58.70
2019-04-14T22:38:18.002Z,58.70
2019-04-14T22:40:48.512Z,59.10
2019-04-14T22:43:19.440Z,59.30
2019-04-14T22:45:50.066Z,59.70
2019-04-14T22:48:20.923Z,59.50
2019-04-14T22:50:51.956Z,59.50
2019-04-14T22:53:23.558Z,59.90
2019-04-14T22:55:54.644Z,59.80
2019-04-14T22:58:25.318Z,59.60
2019-04-14T23:01:04.463Z,59.70
2019-04-14T23:03:54.604Z,59.30
2019-04-14T23:06:55.735Z,59.60
2019-04-14T23:09:45.270Z,59.60
2019-04-14T23:12:34.790Z,59.30
2019-04-14T23:15:44.000Z,59.60
2019-04-14T23:18:29.141Z,59.80
2019-04-14T23:21:16.993Z,59.90
2019-04-14T23:24:15.483Z,60.20
2019-04-14T23:26:52.656Z,60.40
2019-04-14T23:29:19.600Z,60.60
2019-04-14T23:31:50.294Z,60.50
2019-04-14T23:34:20.881Z,60.00
2019-04-14T23:36:51.837Z,60.00
2019-04-14T23:39:22.635Z,60.20
2019-04-14T23:41:53.200Z,61.40
2019-04-14T23:44:24.029Z,60.90
2019-04-14T23:46:54.905Z,60.70
2019-04-14T23:49:25.653Z,61.10
2019-04-14T23:51:56.281Z,61.00
2019-04-14T23:54:27.017Z,61.30
2019-04-14T23:57:05.276Z,61.10
2019-04-14T23:59:30.591Z,60.70
